sensor_id;sensor_type;location;lat;lon;timestamp;P1;durP1;ratioP1;P2;durP2;ratioP2
43650;SDS011;29247;50.944;5.382;2022-12-08T00:01:21;17.45;;;6.40;;
43650;SDS011;29247;50.944;5.382;2022-12-08T00:03:51;13.18;;;7.13;;
43650;SDS011;29247;50.944;5.382;2022-12-08T00:14:30;14.93;;;6.50;;
43650;SDS011;29247;50.944;5.382;2022-12-08T00:17:00;8.57;;;5.93;;
43650;SDS011;29247;50.944;5.382;2022-12-08T00:19:28;12.88;;;6.95;;
43650;SDS011;29247;50.944;5.382;2022-12-08T00:21:55;11.18;;;6.20;;
43650;SDS011;29247;50.944;5.382;2022-12-08T00:24:22;11.02;;;6.72;;
43650;SDS011;29247;50.944;5.382;2022-12-08T00:26:50;8.82;;;5.25;;
43650;SDS011;29247;50.944;5.382;2022-12-08T00:29:21;9.30;;;6.05;;
43650;SDS011;29247;50.944;5.382;2022-12-08T00:37:15;10.27;;;5.38;;
43650;SDS011;29247;50.944;5.382;2022-12-08T00:39:41;9.38;;;5.47;;
43650;SDS011;29247;50.944;5.382;2022-12-08T00:42:07;8.07;;;5.32;;
43650;SDS011;29247;50.944;5.382;2022-12-08T00:44:36;9.43;;;5.32;;
43650;SDS011;29247;50.944;5.382;2022-12-08T00:47:05;8.13;;;4.88;;
43650;SDS011;29247;50.944;5.382;2022-12-08T00:49:31;7.20;;;4.35;;
43650;SDS011;29247;50.944;5.382;2022-12-08T00:51:57;9.80;;;5.97;;
43650;SDS011;29247;50.944;5.382;2022-12-08T00:54:23;8.88;;;3.88;;
43650;SDS011;29247;50.944;5.382;2022-12-08T00:56:49;8.80;;;4.40;;
43650;SDS011;29247;50.944;5.382;2022-12-08T00:59:15;7.45;;;4.47;;
43650;SDS011;29247;50.944;5.382;2022-12-08T01:01:42;7.90;;;4.70;;
43650;SDS011;29247;50.944;5.382;2022-12-08T01:04:10;9.18;;;4.45;;
43650;SDS011;29247;50.944;5.382;2022-12-08T01:06:39;7.90;;;4.28;;
43650;SDS011;29247;50.944;5.382;2022-12-08T01:09:05;7.15;;;4.25;;
43650;SDS011;29247;50.944;5.382;2022-12-08T01:11:32;6.38;;;4.20;;
43650;SDS011;29247;50.944;5.382;2022-12-08T01:14:00;7.18;;;4.05;;
43650;SDS011;29247;50.944;5.382;2022-12-08T01:16:27;8.60;;;4.28;;
43650;SDS011;29247;50.944;5.382;2022-12-08T01:18:58;6.05;;;3.67;;
43650;SDS011;29247;50.944;5.382;2022-12-08T01:21:24;7.55;;;3.60;;
43650;SDS011;29247;50.944;5.382;2022-12-08T01:23:53;6.25;;;3.67;;
43650;SDS011;29247;50.944;5.382;2022-12-08T01:26:26;5.25;;;3.85;;
43650;SDS011;29247;50.944;5.382;2022-12-08T01:28:51;8.95;;;4.28;;
43650;SDS011;29247;50.944;5.382;2022-12-08T01:31:22;10.23;;;4.90;;
43650;SDS011;29247;50.944;5.382;2022-12-08T01:33:53;10.32;;;4.72;;
43650;SDS011;29247;50.944;5.382;2022-12-08T01:36:26;9.80;;;5.70;;
43650;SDS011;29247;50.944;5.382;2022-12-08T01:38:53;8.57;;;5.22;;
43650;SDS011;29247;50.944;5.382;2022-12-08T01:41:24;12.60;;;5.50;;
43650;SDS011;29247;50.944;5.382;2022-12-08T01:46:46;10.27;;;5.55;;
43650;SDS011;29247;50.944;5.382;2022-12-08T01:49:17;10.82;;;6.10;;
43650;SDS011;29247;50.944;5.382;2022-12-08T01:52:02;11.38;;;6.18;;
43650;SDS011;29247;50.944;5.382;2022-12-08T01:54:48;14.05;;;6.85;;
43650;SDS011;29247;50.944;5.382;2022-12-08T01:57:23;16.70;;;7.47;;
43650;SDS011;29247;50.944;5.382;2022-12-08T01:59:54;16.10;;;7.88;;
43650;SDS011;29247;50.944;5.382;2022-12-08T02:02:27;14.13;;;7.38;;
43650;SDS011;29247;50.944;5.382;2022-12-08T02:05:00;16.05;;;8.18;;
43650;SDS011;29247;50.944;5.382;2022-12-08T02:07:29;19.45;;;9.45;;
43650;SDS011;29247;50.944;5.382;2022-12-08T02:09:55;17.02;;;9.43;;
43650;SDS011;29247;50.944;5.382;2022-12-08T02:12:22;19.08;;;10.48;;
43650;SDS011;29247;50.944;5.382;2022-12-08T02:14:47;18.30;;;8.95;;
43650;SDS011;29247;50.944;5.382;2022-12-08T02:17:16;18.25;;;9.93;;
43650;SDS011;29247;50.944;5.382;2022-12-08T02:22:34;23.25;;;11.27;;
43650;SDS011;29247;50.944;5.382;2022-12-08T02:25:11;21.20;;;10.77;;
43650;SDS011;29247;50.944;5.382;2022-12-08T02:30:53;23.75;;;11.45;;
43650;SDS011;29247;50.944;5.382;2022-12-08T02:41:55;19.33;;;10.50;;
43650;SDS011;29247;50.944;5.382;2022-12-08T02:44:38;27.40;;;12.38;;
43650;SDS011;29247;50.944;5.382;2022-12-08T02:47:14;23.73;;;11.25;;
43650;SDS011;29247;50.944;5.382;2022-12-08T02:49:45;23.52;;;10.60;;
43650;SDS011;29247;50.944;5.382;2022-12-08T02:54:46;21.13;;;11.20;;
43650;SDS011;29247;50.944;5.382;2022-12-08T03:00:24;23.80;;;10.80;;
43650;SDS011;29247;50.944;5.382;2022-12-08T03:13:11;26.33;;;11.15;;
43650;SDS011;29247;50.944;5.382;2022-12-08T03:15:42;23.95;;;12.23;;
43650;SDS011;29247;50.944;5.382;2022-12-08T03:18:12;18.75;;;10.95;;
43650;SDS011;29247;50.944;5.382;2022-12-08T03:20:41;24.90;;;10.85;;
43650;SDS011;29247;50.944;5.382;2022-12-08T03:23:12;30.15;;;12.63;;
43650;SDS011;29247;50.944;5.382;2022-12-08T03:25:55;25.33;;;11.43;;
43650;SDS011;29247;50.944;5.382;2022-12-08T03:28:30;24.05;;;11.48;;
43650;SDS011;29247;50.944;5.382;2022-12-08T03:31:00;21.70;;;11.55;;
43650;SDS011;29247;50.944;5.382;2022-12-08T03:33:30;22.48;;;11.25;;
43650;SDS011;29247;50.944;5.382;2022-12-08T03:35:59;22.23;;;10.32;;
43650;SDS011;29247;50.944;5.382;2022-12-08T03:38:26;23.45;;;11.90;;
43650;SDS011;29247;50.944;5.382;2022-12-08T03:41:04;21.75;;;11.25;;
43650;SDS011;29247;50.944;5.382;2022-12-08T03:43:42;22.67;;;11.18;;
43650;SDS011;29247;50.944;5.382;2022-12-08T03:46:12;21.83;;;11.73;;
43650;SDS011;29247;50.944;5.382;2022-12-08T03:48:41;20.85;;;11.27;;
43650;SDS011;29247;50.944;5.382;2022-12-08T03:51:09;23.75;;;11.77;;
43650;SDS011;29247;50.944;5.382;2022-12-08T03:53:38;22.90;;;11.43;;
43650;SDS011;29247;50.944;5.382;2022-12-08T03:56:05;27.23;;;12.20;;
43650;SDS011;29247;50.944;5.382;2022-12-08T03:58:47;23.45;;;11.10;;
43650;SDS011;29247;50.944;5.382;2022-12-08T04:01:14;28.95;;;13.00;;
43650;SDS011;29247;50.944;5.382;2022-12-08T04:03:42;28.70;;;11.13;;
43650;SDS011;29247;50.944;5.382;2022-12-08T04:06:11;24.95;;;11.43;;
43650;SDS011;29247;50.944;5.382;2022-12-08T04:08:37;27.13;;;11.80;;
43650;SDS011;29247;50.944;5.382;2022-12-08T04:11:03;27.42;;;12.00;;
43650;SDS011;29247;50.944;5.382;2022-12-08T04:13:30;24.55;;;10.93;;
43650;SDS011;29247;50.944;5.382;2022-12-08T04:15:57;24.50;;;11.20;;
43650;SDS011;29247;50.944;5.382;2022-12-08T04:18:27;22.25;;;12.15;;
43650;SDS011;29247;50.944;5.382;2022-12-08T04:20:55;22.60;;;11.30;;
43650;SDS011;29247;50.944;5.382;2022-12-08T04:23:22;32.25;;;12.80;;
43650;SDS011;29247;50.944;5.382;2022-12-08T04:25:47;25.83;;;12.13;;
43650;SDS011;29247;50.944;5.382;2022-12-08T04:28:17;25.13;;;11.88;;
43650;SDS011;29247;50.944;5.382;2022-12-08T04:30:42;26.55;;;12.48;;
43650;SDS011;29247;50.944;5.382;2022-12-08T04:33:08;23.13;;;11.02;;
43650;SDS011;29247;50.944;5.382;2022-12-08T04:35:34;26.92;;;12.18;;
43650;SDS011;29247;50.944;5.382;2022-12-08T04:38:00;23.67;;;11.93;;
43650;SDS011;29247;50.944;5.382;2022-12-08T04:40:27;31.00;;;12.02;;
43650;SDS011;29247;50.944;5.382;2022-12-08T04:42:52;25.48;;;12.15;;
43650;SDS011;29247;50.944;5.382;2022-12-08T04:45:18;25.13;;;12.38;;
43650;SDS011;29247;50.944;5.382;2022-12-08T04:47:44;25.30;;;11.90;;
43650;SDS011;29247;50.944;5.382;2022-12-08T04:50:10;22.40;;;10.77;;
43650;SDS011;29247;50.944;5.382;2022-12-08T04:52:57;26.88;;;12.50;;
43650;SDS011;29247;50.944;5.382;2022-12-08T04:55:25;30.85;;;12.80;;
43650;SDS011;29247;50.944;5.382;2022-12-08T04:57:54;24.40;;;12.10;;
43650;SDS011;29247;50.944;5.382;2022-12-08T05:00:20;24.85;;;11.32;;
43650;SDS011;29247;50.944;5.382;2022-12-08T05:02:48;25.65;;;11.85;;
43650;SDS011;29247;50.944;5.382;2022-12-08T05:05:16;21.67;;;11.57;;
43650;SDS011;29247;50.944;5.382;2022-12-08T05:07:42;25.35;;;12.13;;
43650;SDS011;29247;50.944;5.382;2022-12-08T05:10:07;30.65;;;13.07;;
43650;SDS011;29247;50.944;5.382;2022-12-08T05:12:36;28.90;;;12.73;;
43650;SDS011;29247;50.944;5.382;2022-12-08T05:15:01;23.83;;;11.95;;
43650;SDS011;29247;50.944;5.382;2022-12-08T05:17:28;28.75;;;13.52;;
43650;SDS011;29247;50.944;5.382;2022-12-08T05:19:53;31.20;;;12.40;;
43650;SDS011;29247;50.944;5.382;2022-12-08T05:22:21;26.63;;;12.43;;
43650;SDS011;29247;50.944;5.382;2022-12-08T05:24:46;28.02;;;10.90;;
43650;SDS011;29247;50.944;5.382;2022-12-08T05:27:12;24.83;;;13.32;;
43650;SDS011;29247;50.944;5.382;2022-12-08T05:29:38;22.40;;;10.68;;
43650;SDS011;29247;50.944;5.382;2022-12-08T05:32:03;23.45;;;11.73;;
43650;SDS011;29247;50.944;5.382;2022-12-08T05:34:29;24.48;;;11.23;;
43650;SDS011;29247;50.944;5.382;2022-12-08T05:36:55;28.15;;;11.93;;
43650;SDS011;29247;50.944;5.382;2022-12-08T05:39:21;28.35;;;11.32;;
43650;SDS011;29247;50.944;5.382;2022-12-08T05:41:46;28.52;;;12.43;;
43650;SDS011;29247;50.944;5.382;2022-12-08T05:44:14;30.25;;;12.85;;
43650;SDS011;29247;50.944;5.382;2022-12-08T05:46:40;23.52;;;11.82;;
43650;SDS011;29247;50.944;5.382;2022-12-08T05:49:06;23.02;;;10.65;;
43650;SDS011;29247;50.944;5.382;2022-12-08T05:51:36;27.70;;;11.13;;
43650;SDS011;29247;50.944;5.382;2022-12-08T05:54:01;24.80;;;12.50;;
43650;SDS011;29247;50.944;5.382;2022-12-08T05:59:12;26.58;;;10.82;;
43650;SDS011;29247;50.944;5.382;2022-12-08T06:01:38;29.38;;;11.43;;
43650;SDS011;29247;50.944;5.382;2022-12-08T06:04:04;25.23;;;11.68;;
43650;SDS011;29247;50.944;5.382;2022-12-08T06:06:30;21.95;;;11.25;;
43650;SDS011;29247;50.944;5.382;2022-12-08T06:08:58;21.92;;;11.30;;
43650;SDS011;29247;50.944;5.382;2022-12-08T06:11:25;19.58;;;10.88;;
43650;SDS011;29247;50.944;5.382;2022-12-08T06:13:53;21.27;;;10.57;;
43650;SDS011;29247;50.944;5.382;2022-12-08T06:16:20;19.15;;;10.25;;
43650;SDS011;29247;50.944;5.382;2022-12-08T06:18:46;21.08;;;10.70;;
43650;SDS011;29247;50.944;5.382;2022-12-08T06:21:15;22.40;;;10.25;;
43650;SDS011;29247;50.944;5.382;2022-12-08T06:23:42;20.00;;;10.38;;
43650;SDS011;29247;50.944;5.382;2022-12-08T06:26:09;25.05;;;10.88;;
43650;SDS011;29247;50.944;5.382;2022-12-08T06:28:39;24.20;;;10.35;;
43650;SDS011;29247;50.944;5.382;2022-12-08T06:31:15;22.25;;;11.27;;
43650;SDS011;29247;50.944;5.382;2022-12-08T06:33:47;25.80;;;10.25;;
43650;SDS011;29247;50.944;5.382;2022-12-08T06:36:14;22.38;;;10.77;;
43650;SDS011;29247;50.944;5.382;2022-12-08T06:38:41;24.83;;;10.48;;
43650;SDS011;29247;50.944;5.382;2022-12-08T06:41:07;23.50;;;10.02;;
43650;SDS011;29247;50.944;5.382;2022-12-08T06:43:36;16.20;;;9.07;;
43650;SDS011;29247;50.944;5.382;2022-12-08T06:46:05;17.98;;;8.55;;
43650;SDS011;29247;50.944;5.382;2022-12-08T06:48:32;15.25;;;8.25;;
43650;SDS011;29247;50.944;5.382;2022-12-08T06:51:10;18.52;;;9.00;;
43650;SDS011;29247;50.944;5.382;2022-12-08T06:53:37;18.17;;;8.85;;
43650;SDS011;29247;50.944;5.382;2022-12-08T06:56:04;15.80;;;8.15;;
43650;SDS011;29247;50.944;5.382;2022-12-08T06:58:30;14.77;;;7.55;;
43650;SDS011;29247;50.944;5.382;2022-12-08T07:00:56;16.45;;;8.20;;
43650;SDS011;29247;50.944;5.382;2022-12-08T07:03:22;20.35;;;9.40;;
43650;SDS011;29247;50.944;5.382;2022-12-08T07:05:48;17.98;;;7.82;;
43650;SDS011;29247;50.944;5.382;2022-12-08T07:08:14;13.65;;;7.22;;
43650;SDS011;29247;50.944;5.382;2022-12-08T07:10:40;17.75;;;8.88;;
43650;SDS011;29247;50.944;5.382;2022-12-08T07:13:06;19.73;;;8.43;;
43650;SDS011;29247;50.944;5.382;2022-12-08T07:15:32;17.77;;;9.00;;
43650;SDS011;29247;50.944;5.382;2022-12-08T07:17:57;17.23;;;8.70;;
43650;SDS011;29247;50.944;5.382;2022-12-08T07:20:23;22.40;;;10.60;;
43650;SDS011;29247;50.944;5.382;2022-12-08T07:22:52;18.90;;;9.90;;
43650;SDS011;29247;50.944;5.382;2022-12-08T07:25:18;18.00;;;10.13;;
43650;SDS011;29247;50.944;5.382;2022-12-08T07:27:46;20.85;;;9.35;;
43650;SDS011;29247;50.944;5.382;2022-12-08T07:30:13;19.30;;;8.60;;
43650;SDS011;29247;50.944;5.382;2022-12-08T07:32:39;25.83;;;10.27;;
43650;SDS011;29247;50.944;5.382;2022-12-08T07:35:05;26.45;;;11.40;;
43650;SDS011;29247;50.944;5.382;2022-12-08T07:37:32;18.08;;;9.82;;
43650;SDS011;29247;50.944;5.382;2022-12-08T07:40:01;17.42;;;8.80;;
43650;SDS011;29247;50.944;5.382;2022-12-08T07:42:28;19.52;;;9.52;;
43650;SDS011;29247;50.944;5.382;2022-12-08T07:44:53;18.10;;;9.52;;
43650;SDS011;29247;50.944;5.382;2022-12-08T07:47:22;17.70;;;8.55;;
43650;SDS011;29247;50.944;5.382;2022-12-08T07:49:48;19.55;;;9.27;;
43650;SDS011;29247;50.944;5.382;2022-12-08T07:52:15;21.40;;;9.27;;
43650;SDS011;29247;50.944;5.382;2022-12-08T07:57:37;24.02;;;8.70;;
43650;SDS011;29247;50.944;5.382;2022-12-08T08:00:04;20.50;;;9.23;;
43650;SDS011;29247;50.944;5.382;2022-12-08T08:02:30;17.90;;;8.52;;
43650;SDS011;29247;50.944;5.382;2022-12-08T08:04:55;18.42;;;8.52;;
43650;SDS011;29247;50.944;5.382;2022-12-08T08:07:21;19.00;;;9.15;;
43650;SDS011;29247;50.944;5.382;2022-12-08T08:09:49;17.40;;;8.57;;
43650;SDS011;29247;50.944;5.382;2022-12-08T08:12:15;17.25;;;7.93;;
43650;SDS011;29247;50.944;5.382;2022-12-08T08:14:43;21.10;;;9.15;;
43650;SDS011;29247;50.944;5.382;2022-12-08T08:17:09;20.35;;;7.97;;
43650;SDS011;29247;50.944;5.382;2022-12-08T08:19:35;16.55;;;7.90;;
43650;SDS011;29247;50.944;5.382;2022-12-08T08:22:00;14.55;;;7.80;;
43650;SDS011;29247;50.944;5.382;2022-12-08T08:24:26;17.98;;;8.57;;
43650;SDS011;29247;50.944;5.382;2022-12-08T08:26:51;17.42;;;7.20;;
43650;SDS011;29247;50.944;5.382;2022-12-08T08:29:19;16.90;;;7.85;;
43650;SDS011;29247;50.944;5.382;2022-12-08T08:31:45;18.35;;;7.82;;
43650;SDS011;29247;50.944;5.382;2022-12-08T08:34:13;14.88;;;7.28;;
43650;SDS011;29247;50.944;5.382;2022-12-08T08:36:42;23.05;;;8.57;;
43650;SDS011;29247;50.944;5.382;2022-12-08T08:39:07;16.92;;;9.07;;
43650;SDS011;29247;50.944;5.382;2022-12-08T08:41:38;16.65;;;8.60;;
43650;SDS011;29247;50.944;5.382;2022-12-08T08:44:07;14.63;;;7.05;;
43650;SDS011;29247;50.944;5.382;2022-12-08T08:46:35;16.70;;;7.45;;
43650;SDS011;29247;50.944;5.382;2022-12-08T08:49:03;14.75;;;8.35;;
43650;SDS011;29247;50.944;5.382;2022-12-08T08:51:32;14.80;;;8.10;;
43650;SDS011;29247;50.944;5.382;2022-12-08T08:54:00;13.85;;;8.40;;
43650;SDS011;29247;50.944;5.382;2022-12-08T08:56:25;20.15;;;7.55;;
43650;SDS011;29247;50.944;5.382;2022-12-08T08:58:54;14.88;;;7.53;;
43650;SDS011;29247;50.944;5.382;2022-12-08T09:01:21;18.63;;;7.43;;
43650;SDS011;29247;50.944;5.382;2022-12-08T09:03:49;13.98;;;7.18;;
43650;SDS011;29247;50.944;5.382;2022-12-08T09:06:15;12.48;;;6.78;;
43650;SDS011;29247;50.944;5.382;2022-12-08T09:08:41;16.33;;;7.13;;
43650;SDS011;29247;50.944;5.382;2022-12-08T09:11:08;11.63;;;6.70;;
43650;SDS011;29247;50.944;5.382;2022-12-08T09:13:38;14.97;;;6.70;;
43650;SDS011;29247;50.944;5.382;2022-12-08T09:16:04;13.00;;;6.65;;
43650;SDS011;29247;50.944;5.382;2022-12-08T09:18:34;17.33;;;7.72;;
43650;SDS011;29247;50.944;5.382;2022-12-08T09:21:03;12.73;;;6.57;;
43650;SDS011;29247;50.944;5.382;2022-12-08T09:23:39;14.02;;;6.63;;
43650;SDS011;29247;50.944;5.382;2022-12-08T09:26:05;14.25;;;6.70;;
43650;SDS011;29247;50.944;5.382;2022-12-08T09:28:32;14.73;;;7.68;;
43650;SDS011;29247;50.944;5.382;2022-12-08T09:30:58;11.88;;;6.68;;
43650;SDS011;29247;50.944;5.382;2022-12-08T09:33:29;20.95;;;7.45;;
43650;SDS011;29247;50.944;5.382;2022-12-08T09:35:55;17.80;;;7.28;;
43650;SDS011;29247;50.944;5.382;2022-12-08T09:38:23;19.25;;;7.88;;
43650;SDS011;29247;50.944;5.382;2022-12-08T09:40:51;17.00;;;7.68;;
43650;SDS011;29247;50.944;5.382;2022-12-08T09:43:21;12.43;;;6.95;;
43650;SDS011;29247;50.944;5.382;2022-12-08T09:45:58;12.50;;;6.35;;
43650;SDS011;29247;50.944;5.382;2022-12-08T09:48:29;12.90;;;6.97;;
43650;SDS011;29247;50.944;5.382;2022-12-08T09:51:00;15.80;;;6.90;;
43650;SDS011;29247;50.944;5.382;2022-12-08T09:53:38;18.23;;;7.22;;
43650;SDS011;29247;50.944;5.382;2022-12-08T09:56:17;11.93;;;6.75;;
43650;SDS011;29247;50.944;5.382;2022-12-08T10:01:26;13.10;;;6.70;;
43650;SDS011;29247;50.944;5.382;2022-12-08T10:03:58;14.70;;;6.85;;
43650;SDS011;29247;50.944;5.382;2022-12-08T10:06:46;16.35;;;7.10;;
43650;SDS011;29247;50.944;5.382;2022-12-08T10:17:47;15.18;;;7.03;;
43650;SDS011;29247;50.944;5.382;2022-12-08T10:28:42;20.20;;;8.05;;
43650;SDS011;29247;50.944;5.382;2022-12-08T10:31:15;14.57;;;7.85;;
43650;SDS011;29247;50.944;5.382;2022-12-08T10:33:47;15.10;;;7.65;;
43650;SDS011;29247;50.944;5.382;2022-12-08T10:36:29;16.20;;;6.72;;
43650;SDS011;29247;50.944;5.382;2022-12-08T10:42:18;19.27;;;7.18;;
43650;SDS011;29247;50.944;5.382;2022-12-08T10:47:56;16.23;;;7.05;;
43650;SDS011;29247;50.944;5.382;2022-12-08T10:50:32;12.05;;;7.40;;
43650;SDS011;29247;50.944;5.382;2022-12-08T10:55:41;16.95;;;8.85;;
43650;SDS011;29247;50.944;5.382;2022-12-08T10:58:25;15.60;;;7.80;;
43650;SDS011;29247;50.944;5.382;2022-12-08T11:03:26;17.35;;;7.20;;
43650;SDS011;29247;50.944;5.382;2022-12-08T11:06:11;15.73;;;7.70;;
43650;SDS011;29247;50.944;5.382;2022-12-08T11:08:49;16.60;;;7.72;;
43650;SDS011;29247;50.944;5.382;2022-12-08T11:11:18;19.35;;;9.63;;
43650;SDS011;29247;50.944;5.382;2022-12-08T11:13:46;15.82;;;7.78;;
43650;SDS011;29247;50.944;5.382;2022-12-08T11:16:15;15.57;;;7.65;;
43650;SDS011;29247;50.944;5.382;2022-12-08T11:18:45;13.70;;;8.07;;
43650;SDS011;29247;50.944;5.382;2022-12-08T11:21:19;17.17;;;7.18;;
43650;SDS011;29247;50.944;5.382;2022-12-08T11:23:54;17.17;;;8.60;;
43650;SDS011;29247;50.944;5.382;2022-12-08T11:26:25;12.05;;;6.50;;
43650;SDS011;29247;50.944;5.382;2022-12-08T11:28:55;17.60;;;8.07;;
43650;SDS011;29247;50.944;5.382;2022-12-08T11:34:04;14.20;;;7.28;;
43650;SDS011;29247;50.944;5.382;2022-12-08T11:36:33;16.00;;;8.13;;
43650;SDS011;29247;50.944;5.382;2022-12-08T11:39:02;14.60;;;7.30;;
43650;SDS011;29247;50.944;5.382;2022-12-08T11:41:36;19.35;;;8.43;;
43650;SDS011;29247;50.944;5.382;2022-12-08T11:46:59;20.83;;;7.78;;
43650;SDS011;29247;50.944;5.382;2022-12-08T11:49:37;16.77;;;7.25;;
43650;SDS011;29247;50.944;5.382;2022-12-08T11:52:13;12.40;;;6.38;;
43650;SDS011;29247;50.944;5.382;2022-12-08T11:55:15;16.20;;;7.35;;
43650;SDS011;29247;50.944;5.382;2022-12-08T11:57:53;19.38;;;8.32;;
43650;SDS011;29247;50.944;5.382;2022-12-08T12:00:26;20.50;;;8.25;;
43650;SDS011;29247;50.944;5.382;2022-12-08T12:03:03;18.33;;;7.55;;
43650;SDS011;29247;50.944;5.382;2022-12-08T12:08:41;13.27;;;7.07;;
43650;SDS011;29247;50.944;5.382;2022-12-08T12:11:32;15.82;;;6.75;;
43650;SDS011;29247;50.944;5.382;2022-12-08T12:20:25;12.50;;;6.88;;
43650;SDS011;29247;50.944;5.382;2022-12-08T12:23:09;12.00;;;6.88;;
43650;SDS011;29247;50.944;5.382;2022-12-08T12:26:06;12.65;;;5.43;;
43650;SDS011;29247;50.944;5.382;2022-12-08T12:28:42;13.48;;;6.90;;
43650;SDS011;29247;50.944;5.382;2022-12-08T12:31:17;15.77;;;6.60;;
43650;SDS011;29247;50.944;5.382;2022-12-08T12:33:54;16.73;;;6.60;;
43650;SDS011;29247;50.944;5.382;2022-12-08T12:36:30;13.77;;;5.70;;
43650;SDS011;29247;50.944;5.382;2022-12-08T12:38:56;10.65;;;5.40;;
43650;SDS011;29247;50.944;5.382;2022-12-08T12:41:41;14.65;;;6.18;;
43650;SDS011;29247;50.944;5.382;2022-12-08T12:46:51;15.13;;;6.22;;
43650;SDS011;29247;50.944;5.382;2022-12-08T12:54:43;9.43;;;5.03;;
43650;SDS011;29247;50.944;5.382;2022-12-08T12:57:36;14.10;;;5.73;;
43650;SDS011;29247;50.944;5.382;2022-12-08T13:00:18;15.90;;;6.35;;
43650;SDS011;29247;50.944;5.382;2022-12-08T13:02:46;14.10;;;5.28;;
43650;SDS011;29247;50.944;5.382;2022-12-08T13:05:14;10.63;;;6.05;;
43650;SDS011;29247;50.944;5.382;2022-12-08T13:07:52;12.25;;;5.50;;
43650;SDS011;29247;50.944;5.382;2022-12-08T13:10:38;10.30;;;5.45;;
43650;SDS011;29247;50.944;5.382;2022-12-08T13:15:37;10.77;;;5.50;;
43650;SDS011;29247;50.944;5.382;2022-12-08T13:18:06;11.70;;;5.00;;
43650;SDS011;29247;50.944;5.382;2022-12-08T13:21:09;14.27;;;5.47;;
43650;SDS011;29247;50.944;5.382;2022-12-08T13:26:09;12.30;;;5.45;;
43650;SDS011;29247;50.944;5.382;2022-12-08T13:34:21;9.32;;;4.65;;
43650;SDS011;29247;50.944;5.382;2022-12-08T13:36:55;9.68;;;4.70;;
43650;SDS011;29247;50.944;5.382;2022-12-08T13:45:17;12.93;;;5.30;;
43650;SDS011;29247;50.944;5.382;2022-12-08T13:47:56;11.07;;;4.35;;
43650;SDS011;29247;50.944;5.382;2022-12-08T13:51:24;9.48;;;3.92;;
43650;SDS011;29247;50.944;5.382;2022-12-08T13:53:37;8.45;;;4.35;;
43650;SDS011;29247;50.944;5.382;2022-12-08T13:56:04;13.23;;;4.82;;
43650;SDS011;29247;50.944;5.382;2022-12-08T13:58:35;11.63;;;3.75;;
43650;SDS011;29247;50.944;5.382;2022-12-08T14:01:15;10.07;;;4.00;;
43650;SDS011;29247;50.944;5.382;2022-12-08T14:06:19;11.18;;;5.13;;
43650;SDS011;29247;50.944;5.382;2022-12-08T14:09:00;10.07;;;4.55;;
43650;SDS011;29247;50.944;5.382;2022-12-08T14:11:33;11.95;;;4.50;;
43650;SDS011;29247;50.944;5.382;2022-12-08T14:14:15;10.07;;;4.43;;
43650;SDS011;29247;50.944;5.382;2022-12-08T14:16:51;7.78;;;4.55;;
43650;SDS011;29247;50.944;5.382;2022-12-08T14:21:55;9.73;;;4.32;;
43650;SDS011;29247;50.944;5.382;2022-12-08T14:24:37;9.40;;;4.43;;
43650;SDS011;29247;50.944;5.382;2022-12-08T14:27:05;8.98;;;4.93;;
43650;SDS011;29247;50.944;5.382;2022-12-08T14:29:50;10.52;;;4.63;;
43650;SDS011;29247;50.944;5.382;2022-12-08T14:35:01;7.65;;;4.78;;
43650;SDS011;29247;50.944;5.382;2022-12-08T14:37:52;12.60;;;5.25;;
43650;SDS011;29247;50.944;5.382;2022-12-08T14:40:21;11.88;;;4.20;;
43650;SDS011;29247;50.944;5.382;2022-12-08T14:50:44;6.55;;;4.40;;
43650;SDS011;29247;50.944;5.382;2022-12-08T14:53:22;6.95;;;4.57;;
43650;SDS011;29247;50.944;5.382;2022-12-08T14:55:48;15.45;;;4.80;;
43650;SDS011;29247;50.944;5.382;2022-12-08T14:58:19;12.18;;;4.90;;
43650;SDS011;29247;50.944;5.382;2022-12-08T15:00:55;7.05;;;4.28;;
43650;SDS011;29247;50.944;5.382;2022-12-08T15:03:24;9.23;;;4.43;;
43650;SDS011;29247;50.944;5.382;2022-12-08T15:05:55;9.18;;;4.85;;
43650;SDS011;29247;50.944;5.382;2022-12-08T15:08:24;8.80;;;4.85;;
43650;SDS011;29247;50.944;5.382;2022-12-08T15:13:48;10.65;;;4.75;;
43650;SDS011;29247;50.944;5.382;2022-12-08T15:16:28;12.55;;;4.78;;
43650;SDS011;29247;50.944;5.382;2022-12-08T15:19:21;11.80;;;4.65;;
43650;SDS011;29247;50.944;5.382;2022-12-08T15:21:54;7.82;;;4.35;;
43650;SDS011;29247;50.944;5.382;2022-12-08T15:24:33;8.45;;;4.43;;
43650;SDS011;29247;50.944;5.382;2022-12-08T15:26:59;9.30;;;4.57;;
43650;SDS011;29247;50.944;5.382;2022-12-08T15:29:30;10.00;;;4.78;;
43650;SDS011;29247;50.944;5.382;2022-12-08T15:31:59;11.80;;;3.97;;
43650;SDS011;29247;50.944;5.382;2022-12-08T15:34:25;6.18;;;3.58;;
43650;SDS011;29247;50.944;5.382;2022-12-08T15:36:55;7.80;;;3.97;;
43650;SDS011;29247;50.944;5.382;2022-12-08T15:39:29;9.93;;;4.18;;
43650;SDS011;29247;50.944;5.382;2022-12-08T15:41:57;6.78;;;4.43;;
43650;SDS011;29247;50.944;5.382;2022-12-08T15:44:24;10.40;;;3.83;;
43650;SDS011;29247;50.944;5.382;2022-12-08T15:46:50;7.95;;;3.97;;
43650;SDS011;29247;50.944;5.382;2022-12-08T15:49:18;9.95;;;4.65;;
43650;SDS011;29247;50.944;5.382;2022-12-08T15:51:45;10.07;;;4.30;;
43650;SDS011;29247;50.944;5.382;2022-12-08T15:54:12;9.57;;;4.25;;
43650;SDS011;29247;50.944;5.382;2022-12-08T15:56:39;8.68;;;4.50;;
43650;SDS011;29247;50.944;5.382;2022-12-08T15:59:12;6.38;;;4.22;;
43650;SDS011;29247;50.944;5.382;2022-12-08T16:01:44;9.23;;;4.78;;
43650;SDS011;29247;50.944;5.382;2022-12-08T16:04:14;8.45;;;4.28;;
43650;SDS011;29247;50.944;5.382;2022-12-08T16:06:50;8.88;;;4.10;;
43650;SDS011;29247;50.944;5.382;2022-12-08T16:12:05;7.32;;;4.18;;
43650;SDS011;29247;50.944;5.382;2022-12-08T16:14:56;9.77;;;4.80;;
43650;SDS011;29247;50.944;5.382;2022-12-08T16:17:22;8.65;;;4.68;;
43650;SDS011;29247;50.944;5.382;2022-12-08T16:19:48;10.85;;;3.92;;
43650;SDS011;29247;50.944;5.382;2022-12-08T16:22:15;8.77;;;4.65;;
43650;SDS011;29247;50.944;5.382;2022-12-08T16:24:42;8.90;;;4.45;;
43650;SDS011;29247;50.944;5.382;2022-12-08T16:27:31;9.05;;;4.25;;
43650;SDS011;29247;50.944;5.382;2022-12-08T16:29:57;5.03;;;4.18;;
43650;SDS011;29247;50.944;5.382;2022-12-08T16:32:24;8.52;;;3.25;;
43650;SDS011;29247;50.944;5.382;2022-12-08T16:34:51;6.95;;;3.30;;
43650;SDS011;29247;50.944;5.382;2022-12-08T16:37:18;7.20;;;3.17;;
43650;SDS011;29247;50.944;5.382;2022-12-08T16:39:48;12.45;;;3.05;;
43650;SDS011;29247;50.944;5.382;2022-12-08T16:42:19;3.55;;;2.20;;
43650;SDS011;29247;50.944;5.382;2022-12-08T16:45:06;7.07;;;2.55;;
43650;SDS011;29247;50.944;5.382;2022-12-08T16:50:12;6.07;;;2.42;;
43650;SDS011;29247;50.944;5.382;2022-12-08T16:52:41;5.80;;;2.97;;
43650;SDS011;29247;50.944;5.382;2022-12-08T16:55:11;3.58;;;2.53;;
43650;SDS011;29247;50.944;5.382;2022-12-08T16:57:40;4.70;;;2.38;;
43650;SDS011;29247;50.944;5.382;2022-12-08T17:00:07;5.88;;;2.25;;
43650;SDS011;29247;50.944;5.382;2022-12-08T17:02:38;3.55;;;2.08;;
43650;SDS011;29247;50.944;5.382;2022-12-08T17:05:03;3.67;;;2.25;;
43650;SDS011;29247;50.944;5.382;2022-12-08T17:07:29;4.82;;;2.50;;
43650;SDS011;29247;50.944;5.382;2022-12-08T17:09:55;3.35;;;2.60;;
43650;SDS011;29247;50.944;5.382;2022-12-08T17:12:23;8.48;;;2.63;;
43650;SDS011;29247;50.944;5.382;2022-12-08T17:14:49;5.13;;;2.83;;
43650;SDS011;29247;50.944;5.382;2022-12-08T17:17:14;10.23;;;2.75;;
43650;SDS011;29247;50.944;5.382;2022-12-08T17:19:40;5.45;;;2.65;;